Bochem Mumbai — VRHJ8 — position and weather

sailwx.info

Track history (hours):
 
Tides and Currents Weather Stations Pressure Air Temp Water Temp Dewpoint Dewpoint Depression Visibility Wind Speed Wind Dir Waves Ship Positions

Bochem Mumbai

Last reported at 2016-Apr-17 07:33 UTC. Time now 2016-Apr-30 16:54 UTC.
Position N 30°52' E 032°19'.
Warning: this ship's position is 13 days out of date.

Length 171 m; draft 11.4 m.

Type: Ship (hazmat cat C). MMSI: 477932400.

Date/timePositionNaut miles runAvg speedWind from/ knotsBaromVisibWave heightAir tempDewpointWater temp
2016-Apr-17 07:33N 30°52' E 032°19'9 8.9
2016-Apr-17 06:33N 31°01' E 032°19'21 7.0
2016-Apr-17 03:33N 31°22' E 032°21'3 2.6
2016-Apr-17 02:33N 31°22' E 032°18'0 0.0
2016-Apr-17 01:33N 31°22' E 032°18'0 0.0
2016-Apr-17 00:33N 31°22' E 032°18'0 0.0
2016-Apr-16 23:27N 31°22' E 032°18'0 0.0
2016-Apr-16 22:32N 31°22' E 032°18'0 0.0
2016-Apr-16 21:15N 31°22' E 032°18'0 0.0
2016-Apr-16 20:33N 31°22' E 032°18'0 0.0
2016-Apr-16 19:27N 31°22' E 032°18'0 0.2
2016-Apr-16 18:33N 31°22' E 032°18'9 6.5
2016-Apr-16 17:10N 31°30' E 032°14'812.0
2016-Apr-16 16:32N 31°36' E 032°07'1313.3
2016-Apr-16 15:33N 31°45' E 031°57'1413.8
2016-Apr-16 14:33N 31°49' E 031°41'1413.7
2016-Apr-16 13:33N 31°54' E 031°26'4213.8
2016-Apr-16 10:31N 32°06' E 030°39'7213.8
2016-Apr-16 05:18N 32°29' E 029°18'1113.4
2016-Apr-16 04:27N 32°32' E 029°05'  
2016-Apr-13 22:28N 36°17' E 015°08'1213.4
2016-Apr-13 21:33N 36°21' E 014°54'1413.7
2016-Apr-13 20:33N 36°25' E 014°37'1313.4
2016-Apr-13 19:33N 36°29' E 014°22'1413.5
2016-Apr-13 18:33N 36°33' E 014°06'1413.7
2016-Apr-13 17:33N 36°38' E 013°50'1313.2
2016-Apr-13 16:33N 36°42' E 013°34'1413.6
2016-Apr-13 15:33N 36°46' E 013°18'1413.7
2016-Apr-13 14:33N 36°51' E 013°02'1413.6
2016-Apr-13 13:33N 36°55' E 012°46'4113.6
2016-Apr-13 10:33N 37°08' E 011°57'11613.8
2016-Apr-13 02:07N 37°42' E 009°37'813.4
2016-Apr-13 01:31N 37°47' E 009°29'1713.6
2016-Apr-13 00:15N 37°57' E 009°11'1513.4
2016-Apr-12 23:09N 38°05' E 008°56'812.9
2016-Apr-12 22:32N 38°07' E 008°46'1313.3
2016-Apr-12 21:33N 38°07' E 008°29'40313.4
2016-Apr-11 15:33N 36°44' E 000°12'1512.8
2016-Apr-11 14:23N 36°40' W 000°05'1112.8
2016-Apr-11 13:32N 36°38' W 000°19'1313.0
2016-Apr-11 12:33N 36°36' W 000°34'23513.8
2016-Apr-10 19:33N 35°58' W 005°22'1716.5
2016-Apr-10 18:33N 35°54' W 005°42'  
Track history (hours):
 
Tides and Currents Weather Stations Pressure Air Temp Water Temp Dewpoint Dewpoint Depression Visibility Wind Speed Wind Dir Waves Ship Positions

Bochem Mumbai

Last reported at 2016-Apr-17 07:33 UTC. Time now 2016-Apr-30 16:54 UTC.
Position N 30°52' E 032°19'.
Warning: this ship's position is 13 days out of date.

Length 171 m; draft 11.4 m.

Type: Ship (hazmat cat C). MMSI: 477932400.

Date/timePositionNaut miles runAvg speedWind from/ knotsBaromVisibWave heightAir tempDewpointWater temp
2016-Apr-17 07:33N 30°52' E 032°19'9 8.9
2016-Apr-17 06:33N 31°01' E 032°19'21 7.0
2016-Apr-17 03:33N 31°22' E 032°21'3 2.6
2016-Apr-17 02:33N 31°22' E 032°18'0 0.0
2016-Apr-17 01:33N 31°22' E 032°18'0 0.0
2016-Apr-17 00:33N 31°22' E 032°18'0 0.0
2016-Apr-16 23:27N 31°22' E 032°18'0 0.0
2016-Apr-16 22:32N 31°22' E 032°18'0 0.0
2016-Apr-16 21:15N 31°22' E 032°18'0 0.0
2016-Apr-16 20:33N 31°22' E 032°18'0 0.0
2016-Apr-16 19:27N 31°22' E 032°18'0 0.2
2016-Apr-16 18:33N 31°22' E 032°18'9 6.5
2016-Apr-16 17:10N 31°30' E 032°14'812.0
2016-Apr-16 16:32N 31°36' E 032°07'1313.3
2016-Apr-16 15:33N 31°45' E 031°57'1413.8
2016-Apr-16 14:33N 31°49' E 031°41'1413.7
2016-Apr-16 13:33N 31°54' E 031°26'4213.8
2016-Apr-16 10:31N 32°06' E 030°39'7213.8
2016-Apr-16 05:18N 32°29' E 029°18'1113.4
2016-Apr-16 04:27N 32°32' E 029°05'  
2016-Apr-13 22:28N 36°17' E 015°08'1213.4
2016-Apr-13 21:33N 36°21' E 014°54'1413.7
2016-Apr-13 20:33N 36°25' E 014°37'1313.4
2016-Apr-13 19:33N 36°29' E 014°22'1413.5
2016-Apr-13 18:33N 36°33' E 014°06'1413.7
2016-Apr-13 17:33N 36°38' E 013°50'1313.2
2016-Apr-13 16:33N 36°42' E 013°34'1413.6
2016-Apr-13 15:33N 36°46' E 013°18'1413.7
2016-Apr-13 14:33N 36°51' E 013°02'1413.6
2016-Apr-13 13:33N 36°55' E 012°46'4113.6
2016-Apr-13 10:33N 37°08' E 011°57'11613.8
2016-Apr-13 02:07N 37°42' E 009°37'813.4
2016-Apr-13 01:31N 37°47' E 009°29'1713.6
2016-Apr-13 00:15N 37°57' E 009°11'1513.4
2016-Apr-12 23:09N 38°05' E 008°56'812.9
2016-Apr-12 22:32N 38°07' E 008°46'1313.3
2016-Apr-12 21:33N 38°07' E 008°29'40313.4
2016-Apr-11 15:33N 36°44' E 000°12'1512.8
2016-Apr-11 14:23N 36°40' W 000°05'1112.8
2016-Apr-11 13:32N 36°38' W 000°19'1313.0
2016-Apr-11 12:33N 36°36' W 000°34'23513.8
2016-Apr-10 19:33N 35°58' W 005°22'1716.5
2016-Apr-10 18:33N 35°54' W 005°42'  

Dump ship's entire track history